Mill Creek, Kentucky
Current Conditions -  °F | °C
As of 8:55 PM on Friday 24 Oct 2014 (Local Time) from KFGX Reporting Station
Clear Clear  
Wind Chill: 52°   Ceiling: Unl
Heat Index: 52°   Visibility: 10mi
Dew Point: 41°   Wind: 5mph
Humidity: 66%   Direction: 220°SW
Pressure: 30.07"   Gusts: NA
Location:  38.4934°N, 83.7754°W
Report Text: KFGX 250055Z AUTO 22004KT 10SM CLR 11/05 A3007 RMK AO2 T01110049
Loading
Personal Weather Stations






























Interactive Weather Map
Tropical Storm Tracking
New forecast layout! Learn more

10-Day Weather Forecast

Advertisements
Track Severe Weather on mobile